Time;durP1;ratioP1;P1;durP2;ratioP2;P2;SDS_P1;SDS_P2;PMS_P1;PMS_P2;Temp;Humidity;BMP_temperature;BMP_pressure;BME280_temperature;BME280_humidity;BME280_pressure;Samples;Min_cycle;Max_cycle;Signal;HPM_P1;HPM_P2
2023/01/11 00:00:38;;;;;;;;;2.00;0.67;;;;;12.22;86.40;100837.47;5092708;27;46010;-66
2023/01/11 00:03:04;;;;;;;;;2.00;2.00;;;;;12.31;86.56;100841.81;5089671;27;45605;-68
2023/01/11 00:05:30;;;;;;;;;2.33;0.67;;;;;12.29;86.50;100836.59;5074636;27;46485;-66
2023/01/11 00:07:57;;;;;;;;;1.00;1.00;;;;;12.21;86.53;100819.97;5093408;27;45516;-67
2023/01/11 00:10:23;;;;;;;;;1.00;1.00;;;;;12.32;86.33;100838.31;5091726;27;45640;-67
2023/01/11 00:12:48;;;;;;;;;0.00;0.00;;;;;12.30;86.62;100834.81;5094070;27;45956;-68
2023/01/11 00:15:14;;;;;;;;;1.00;1.00;;;;;12.26;86.48;100827.81;5095733;27;45455;-67
2023/01/11 00:17:40;;;;;;;;;1.00;1.00;;;;;12.27;86.91;100829.59;5093219;27;45468;-67
2023/01/11 00:20:08;;;;;;;;;1.00;1.00;;;;;12.31;87.67;100839.19;5092317;27;46370;-66
2023/01/11 00:22:33;;;;;;;;;0.33;0.00;;;;;12.31;87.73;100847.06;5092100;27;45604;-67
2023/01/11 00:24:59;;;;;;;;;1.00;1.00;;;;;12.27;87.92;100824.34;5090389;27;46867;-67
2023/01/11 00:27:25;;;;;;;;;1.00;1.00;;;;;12.21;88.17;100814.72;5090618;27;45806;-68
2023/01/11 00:29:50;;;;;;;;;1.00;1.00;;;;;12.20;87.62;100815.59;5093454;27;45487;-68
2023/01/11 00:32:16;;;;;;;;;2.00;1.00;;;;;12.32;87.72;100819.06;5092968;27;46681;-69
2023/01/11 00:34:41;;;;;;;;;2.33;1.33;;;;;12.29;87.97;100812.94;5093260;27;45485;-67
2023/01/11 00:37:08;;;;;;;;;1.00;1.00;;;;;12.24;87.88;100804.22;5091239;27;45972;-67
2023/01/11 00:39:34;;;;;;;;;4.00;1.00;;;;;12.29;88.39;100819.91;5091061;27;46642;-67
2023/01/11 00:50:11;;;;;;;;;1.00;1.00;;;;;12.28;88.57;100805.94;5098603;27;45368;-67
2023/01/11 00:52:37;;;;;;;;;2.00;0.00;;;;;12.28;88.74;100800.66;5098284;27;45705;-66
2023/01/11 00:55:03;;;;;;;;;1.00;1.00;;;;;12.19;88.48;100790.19;5095178;27;45555;-66
2023/01/11 00:57:29;;;;;;;;;1.00;1.00;;;;;12.18;88.93;100785.84;5089952;27;45799;-66
2023/01/11 00:59:54;;;;;;;;;1.00;1.00;;;;;12.25;89.43;100790.19;5085308;27;46687;-67
2023/01/11 01:02:21;;;;;;;;;1.00;0.00;;;;;12.22;89.50;100798.09;5093342;27;45714;-68
2023/01/11 01:04:47;;;;;;;;;1.00;1.00;;;;;12.16;89.71;100795.47;5095499;27;45505;-67
2023/01/11 01:07:12;;;;;;;;;1.33;1.33;;;;;12.15;89.66;100788.50;5095461;27;45792;-66
2023/01/11 01:09:38;;;;;;;;;2.33;1.00;;;;;12.13;90.29;100790.25;5095461;27;45977;-67
2023/01/11 01:12:05;;;;;;;;;2.00;0.67;;;;;12.09;90.78;100778.84;5097121;27;45562;-67
2023/01/11 01:14:32;;;;;;;;;0.00;0.00;;;;;12.15;90.58;100793.75;5099412;27;45426;-67
2023/01/11 01:17:01;;;;;;;;;1.33;0.67;;;;;12.15;90.44;100784.97;5095460;27;45273;-68
2023/01/11 01:19:29;;;;;;;;;1.00;1.00;;;;;12.16;90.41;100777.09;5094257;27;46275;-67
2023/01/11 01:21:56;;;;;;;;;0.00;0.00;;;;;12.14;90.79;100804.22;5095481;27;45438;-66
2023/01/11 01:24:22;;;;;;;;;0.00;0.00;;;;;12.10;90.71;100782.34;5099195;27;45507;-67
2023/01/11 01:26:48;;;;;;;;;1.00;0.67;;;;;11.92;90.30;100753.56;5099202;27;45380;-67
2023/01/11 01:29:14;;;;;;;;;2.00;0.00;;;;;11.85;90.18;100740.41;5094631;27;46568;-67
2023/01/11 01:31:41;;;;;;;;;0.00;0.00;;;;;12.07;90.83;100762.22;5080290;27;45450;-67
2023/01/11 01:34:07;;;;;;;;;0.67;0.00;;;;;12.09;90.70;100764.88;5095075;27;45502;-66
2023/01/11 01:36:33;;;;;;;;;0.00;0.00;;;;;12.16;90.70;100777.09;5093140;27;45479;-68
2023/01/11 01:39:00;;;;;;;;;1.00;1.00;;;;;12.13;90.90;100763.13;5085521;27;46356;-65
2023/01/11 01:41:27;;;;;;;;;0.00;0.00;;;;;12.13;90.67;100758.72;5088976;27;45294;-67
2023/01/11 01:43:55;;;;;;;;;0.00;0.00;;;;;12.15;90.82;100751.72;5101706;27;47804;-67
2023/01/11 01:46:25;;;;;;;;;1.33;0.00;;;;;12.15;90.83;100749.09;5094331;27;45565;-67
2023/01/11 01:49:06;;;;;;;;;0.00;0.00;;;;;12.20;91.04;100756.97;5092282;27;45532;-68
2023/01/11 01:51:38;;;;;;;;;0.00;0.00;;;;;12.13;91.25;100748.22;5086569;27;45407;-67
2023/01/11 01:54:07;;;;;;;;;0.00;0.00;;;;;12.11;91.38;100743.88;5094507;27;45798;-66
2023/01/11 01:56:56;;;;;;;;;0.00;0.00;;;;;12.15;91.54;100754.34;5094792;27;45419;-68
2023/01/11 01:59:24;;;;;;;;;0.00;0.00;;;;;12.13;90.96;100756.09;5098470;27;45564;-67
2023/01/11 02:01:51;;;;;;;;;0.00;0.00;;;;;12.17;91.25;100749.97;5096767;27;45562;-66
2023/01/11 02:04:22;;;;;;;;;0.00;0.00;;;;;12.20;91.13;100763.09;5086005;27;45404;-66
2023/01/11 02:06:54;;;;;;;;;0.00;0.00;;;;;12.12;91.40;100741.22;5094978;27;45876;-66
2023/01/11 02:09:32;;;;;;;;;1.00;0.00;;;;;12.15;91.48;100753.47;5093599;27;46361;-68
2023/01/11 02:11:59;;;;;;;;;0.00;0.00;;;;;12.14;91.17;100749.09;5092392;27;45500;-67
2023/01/11 02:14:28;;;;;;;;;0.00;0.00;;;;;12.20;90.93;100751.72;5092275;27;45833;-67
2023/01/11 02:16:54;;;;;;;;;0.00;0.00;;;;;12.20;90.85;100755.19;5094022;27;45517;-67
2023/01/11 02:19:38;;;;;;;;;0.00;0.00;;;;;12.29;90.68;100757.78;5095172;27;45628;-67
2023/01/11 02:22:25;;;;;;;;;0.00;0.00;;;;;12.31;90.40;100757.75;5097770;27;45574;-66
2023/01/11 02:25:17;;;;;;;;;0.00;0.00;;;;;12.28;90.46;100763.03;5079245;27;45279;-67
2023/01/11 02:28:07;;;;;;;;;0.00;0.00;;;;;12.28;90.02;100765.66;5090860;27;45539;-67
2023/01/11 02:31:01;;;;;;;;;0.00;0.00;;;;;12.29;89.73;100762.16;5093400;27;45645;-66
2023/01/11 02:34:16;;;;;;;;;0.00;0.00;;;;;12.27;90.61;100754.28;5077374;27;45536;-67
2023/01/11 02:36:50;;;;;;;;;0.00;0.00;;;;;12.27;90.27;100753.44;5093697;27;45211;-67
2023/01/11 02:39:41;;;;;;;;;0.00;0.00;;;;;12.26;90.21;100743.78;5093968;27;45486;-66
2023/01/11 02:45:45;;;;;;;;;0.00;0.00;;;;;12.30;90.04;100735.03;5098035;27;45389;-66
2023/01/11 02:48:40;;;;;;;;;0.00;0.00;;;;;12.34;90.15;100738.50;5113362;27;46103;-66
2023/01/11 02:51:32;;;;;;;;;0.00;0.00;;;;;12.24;89.80;100719.28;5095974;27;45266;-67
2023/01/11 02:54:04;;;;;;;;;1.00;0.00;;;;;12.37;90.02;100747.25;5093235;27;46266;-66
2023/01/11 02:56:35;;;;;;;;;0.00;0.00;;;;;12.43;89.55;100748.94;5092883;27;45347;-67
2023/01/11 02:59:03;;;;;;;;;0.00;0.00;;;;;12.14;89.76;100694.81;5096587;27;45218;-67
2023/01/11 03:01:29;;;;;;;;;0.00;0.00;;;;;12.42;89.88;100744.59;5096390;27;45573;-67
2023/01/11 03:03:55;;;;;;;;;0.33;0.00;;;;;12.42;89.40;100737.56;5092819;27;45473;-67
2023/01/11 03:06:33;;;;;;;;;0.00;0.00;;;;;12.34;89.90;100726.25;5091859;27;45520;-67
2023/01/11 03:09:16;;;;;;;;;3.00;0.00;;;;;12.46;89.12;100744.56;5093085;27;45578;-66
2023/01/11 03:15:39;;;;;;;;;0.00;0.00;;;;;12.51;89.30;100742.78;5092935;27;45847;-67
2023/01/11 03:18:25;;;;;;;;;0.00;0.00;;;;;12.49;89.48;100743.66;5096530;27;45566;-67
2023/01/11 03:21:06;;;;;;;;;0.00;0.00;;;;;12.51;89.34;100739.28;5091883;27;45725;-66
2023/01/11 03:23:46;;;;;;;;;0.00;0.00;;;;;12.45;89.28;100727.03;5087931;27;45397;-67
2023/01/11 03:26:24;;;;;;;;;0.00;0.00;;;;;12.54;88.74;100741.03;5098631;27;45446;-66
2023/01/11 03:28:57;;;;;;;;;0.00;0.00;;;;;12.53;88.66;100732.28;5094865;27;45764;-66
2023/01/11 03:31:33;;;;;;;;;0.00;0.00;;;;;12.52;89.11;100734.00;5096235;27;45456;-67
2023/01/11 03:34:30;;;;;;;;;0.67;0.00;;;;;12.56;89.31;100742.75;5094700;27;45457;-67
2023/01/11 03:37:05;;;;;;;;;0.00;0.00;;;;;12.36;89.40;100721.84;5096510;27;45582;-67
2023/01/11 03:39:56;;;;;;;;;0.00;0.00;;;;;12.48;89.63;100749.78;5099229;27;45452;-67
2023/01/11 03:42:24;;;;;;;;;1.00;0.00;;;;;12.46;89.99;100741.94;5095623;27;45870;-66
2023/01/11 03:44:54;;;;;;;;;0.00;0.00;;;;;12.50;90.33;100745.41;5100067;27;45416;-67
2023/01/11 03:47:24;;;;;;;;;0.00;0.00;;;;;12.45;90.47;100744.56;5098122;27;47257;-66
2023/01/11 03:49:57;;;;;;;;;0.00;0.00;;;;;12.44;90.90;100743.69;5096372;27;45555;-66
2023/01/11 03:52:30;;;;;;;;;0.00;0.00;;;;;12.41;90.75;100742.81;5087954;27;45319;-66
2023/01/11 03:54:58;;;;;;;;;0.00;0.00;;;;;12.47;90.84;100748.94;5098050;27;45476;-68
2023/01/11 03:57:38;;;;;;;;;0.00;0.00;;;;;12.53;90.53;100761.19;5100622;27;45432;-66
2023/01/11 04:00:06;;;;;;;;;0.00;0.00;;;;;12.49;90.19;100748.94;5095724;27;45460;-68
2023/01/11 04:02:39;;;;;;;;;0.00;0.00;;;;;12.56;90.25;100758.53;5096030;27;45818;-67
2023/01/11 04:05:06;;;;;;;;;0.00;0.00;;;;;12.56;90.51;100758.53;5095791;27;45515;-67
2023/01/11 04:07:32;;;;;;;;;0.00;0.00;;;;;12.55;90.60;100750.63;5094520;27;47524;-67
2023/01/11 04:09:57;;;;;;;;;0.00;0.00;;;;;12.42;90.56;100739.34;5095751;27;45503;-67
2023/01/11 04:12:24;;;;;;;;;0.00;0.00;;;;;12.56;90.42;100757.66;5095873;27;45387;-66
2023/01/11 04:14:50;;;;;;;;;0.00;0.00;;;;;12.57;90.24;100762.00;5113501;27;46141;-67
2023/01/11 04:17:16;;;;;;;;;0.00;0.00;;;;;12.52;90.27;100759.41;5115441;27;45753;-67
2023/01/11 04:19:41;;;;;;;;;0.00;0.00;;;;;12.48;90.22;100750.69;5097407;27;45662;-67
2023/01/11 04:22:07;;;;;;;;;0.00;0.00;;;;;12.56;90.34;100755.91;5094519;27;45778;-67
2023/01/11 04:24:33;;;;;;;;;0.00;0.00;;;;;12.50;90.02;100746.31;5099480;27;45390;-66
2023/01/11 04:26:58;;;;;;;;;0.00;0.00;;;;;12.57;89.94;100756.75;5099855;27;45529;-66
2023/01/11 04:29:24;;;;;;;;;0.00;0.00;;;;;12.57;89.74;100762.00;5100173;27;45400;-67
2023/01/11 04:31:50;;;;;;;;;0.00;0.00;;;;;12.50;90.36;100748.94;5097999;27;45439;-67
2023/01/11 04:34:15;;;;;;;;;0.00;0.00;;;;;12.47;89.99;100743.66;5090951;27;45562;-67
2023/01/11 04:36:41;;;;;;;;;0.00;0.00;;;;;12.52;90.32;100754.16;5088645;27;45367;-67
2023/01/11 04:39:09;;;;;;;;;0.00;0.00;;;;;12.50;90.41;100764.69;5096138;27;45405;-65
2023/01/11 04:44:19;;;;;;;;;0.00;0.00;;;;;12.39;90.60;100742.84;5095245;27;45521;-67
2023/01/11 04:46:45;;;;;;;;;0.00;0.00;;;;;12.54;90.72;100770.78;5097645;27;46549;-67
2023/01/11 04:49:11;;;;;;;;;0.00;0.00;;;;;12.55;90.45;100774.28;5096422;27;45479;-67
2023/01/11 04:51:36;;;;;;;;;0.00;0.00;;;;;12.52;90.03;100775.16;5094291;27;45535;-66
2023/01/11 04:54:02;;;;;;;;;0.00;0.00;;;;;12.57;90.01;100783.03;5095471;27;45702;-66
2023/01/11 04:56:28;;;;;;;;;0.00;0.00;;;;;12.54;89.50;100772.56;5094203;27;45713;-67
2023/01/11 04:58:53;;;;;;;;;0.00;0.00;;;;;12.61;89.12;100792.66;5095805;27;45524;-67
2023/01/11 05:01:19;;;;;;;;;0.00;0.00;;;;;12.56;88.92;100791.81;5095559;27;45440;-67
2023/01/11 05:03:45;;;;;;;;;0.00;0.00;;;;;12.49;88.86;100794.44;5095469;27;45454;-66
2023/01/11 05:06:12;;;;;;;;;0.00;0.00;;;;;12.61;88.45;100818.94;5095545;27;46252;-66
2023/01/11 05:08:37;;;;;;;;;0.00;0.00;;;;;12.54;87.86;100807.56;5094713;27;45420;-66
2023/01/11 05:11:06;;;;;;;;;0.00;0.00;;;;;12.59;87.48;100824.19;5095102;27;45620;-67
2023/01/11 05:13:41;;;;;;;;;1.00;0.00;;;;;12.44;87.69;100806.75;5093617;27;45586;-66
2023/01/11 05:16:08;;;;;;;;;0.00;0.00;;;;;12.56;87.43;100821.56;5110911;27;47337;-67
2023/01/11 05:18:33;;;;;;;;;0.00;0.00;;;;;12.55;87.27;100832.09;5095277;27;45409;-67
2023/01/11 05:20:59;;;;;;;;;0.00;0.00;;;;;12.58;86.89;100842.59;5094821;27;45610;-67
2023/01/11 05:23:24;;;;;;;;;0.00;0.00;;;;;12.52;86.05;100830.34;5096283;27;45278;-66
2023/01/11 05:25:50;;;;;;;;;0.00;0.00;;;;;12.54;86.23;100832.97;5097168;27;46355;-67
2023/01/11 05:28:15;;;;;;;;;0.00;0.00;;;;;12.57;86.12;100853.97;5094773;27;45463;-66
2023/01/11 05:30:41;;;;;;;;;0.00;0.00;;;;;12.52;86.13;100844.34;5095079;27;45328;-65
2023/01/11 05:33:06;;;;;;;;;0.00;0.00;;;;;12.51;84.74;100852.25;5096742;27;45423;-66
2023/01/11 05:35:32;;;;;;;;;0.00;0.00;;;;;12.49;84.04;100864.53;5097355;27;45799;-67
2023/01/11 05:37:57;;;;;;;;;0.00;0.00;;;;;12.51;83.77;100875.91;5097517;27;45692;-67
2023/01/11 05:40:23;;;;;;;;;3.67;0.00;;;;;12.45;84.08;100875.91;5096098;27;45360;-67
2023/01/11 05:42:48;;;;;;;;;0.00;0.00;;;;;12.44;84.13;100882.06;5093704;27;45524;-67
2023/01/11 05:45:30;;;;;;;;;0.00;0.00;;;;;12.34;83.65;100888.19;5097280;27;46074;-67
2023/01/11 05:48:00;;;;;;;;;0.00;0.00;;;;;12.33;83.02;100896.97;5097633;27;45431;-67
2023/01/11 05:50:25;;;;;;;;;1.33;0.00;;;;;12.34;82.99;100917.97;5099150;27;45426;-67
2023/01/11 05:52:51;;;;;;;;;0.00;0.00;;;;;12.32;82.67;100919.72;5083697;27;45670;-65
2023/01/11 05:55:17;;;;;;;;;0.67;0.00;;;;;12.21;82.49;100898.72;5096460;27;46449;-66
2023/01/11 05:57:43;;;;;;;;;1.00;0.00;;;;;12.31;82.68;100912.72;5110716;27;45505;-66
2023/01/11 06:00:10;;;;;;;;;3.00;0.00;;;;;12.30;82.99;100909.22;5113303;27;45468;-67
2023/01/11 06:02:36;;;;;;;;;0.00;0.00;;;;;12.23;83.21;100891.72;5093392;27;45472;-67
2023/01/11 06:05:02;;;;;;;;;1.00;0.00;;;;;12.27;83.01;100911.88;5093985;27;46108;-66
2023/01/11 06:07:27;;;;;;;;;0.00;0.00;;;;;12.31;83.12;100920.59;5093993;27;45602;-66
2023/01/11 06:09:53;;;;;;;;;1.33;0.00;;;;;12.31;82.62;100928.47;5094100;27;45621;-65
2023/01/11 06:12:18;;;;;;;;;0.00;0.00;;;;;12.22;82.17;100921.50;5097200;27;45412;-65
2023/01/11 06:14:44;;;;;;;;;0.33;0.00;;;;;12.22;82.61;100921.50;5098603;27;45365;-67
2023/01/11 06:17:09;;;;;;;;;1.00;0.67;;;;;12.27;82.08;100946.00;5094295;27;45640;-66
2023/01/11 06:19:35;;;;;;;;;2.00;0.00;;;;;12.16;82.65;100932.00;5093997;27;45376;-66
2023/01/11 06:22:01;;;;;;;;;2.00;0.00;;;;;12.21;81.99;100943.38;5094081;27;45494;-67
2023/01/11 06:24:26;;;;;;;;;2.00;0.00;;;;;12.18;81.99;100947.78;5095562;27;45720;-66
2023/01/11 06:26:53;;;;;;;;;4.33;0.00;;;;;12.19;81.90;100949.50;5095620;27;45439;-66
2023/01/11 06:29:18;;;;;;;;;2.00;0.33;;;;;12.15;81.43;100940.78;5094225;27;45502;-66
2023/01/11 06:31:44;;;;;;;;;5.33;0.00;;;;;12.12;81.34;100946.00;5093850;27;45444;-67
2023/01/11 06:34:09;;;;;;;;;1.67;0.00;;;;;12.14;81.49;100952.13;5092274;27;46676;-67
2023/01/11 06:36:35;;;;;;;;;4.33;1.67;;;;;12.20;81.24;100970.53;5098411;27;45446;-66
2023/01/11 06:39:00;;;;;;;;;0.33;0.33;;;;;12.17;81.24;100965.28;5094664;27;45457;-68
2023/01/11 06:41:27;;;;;;;;;1.33;0.00;;;;;12.11;81.38;100957.41;5093991;27;45342;-68
2023/01/11 06:43:53;;;;;;;;;4.33;0.67;;;;;12.11;81.34;100973.16;5093275;27;46648;-67
2023/01/11 06:46:19;;;;;;;;;4.00;1.00;;;;;12.13;81.08;100984.53;5093462;27;45927;-66
2023/01/11 06:48:45;;;;;;;;;3.67;2.00;;;;;12.12;81.23;100992.41;5093151;27;45503;-68
2023/01/11 06:51:12;;;;;;;;;4.67;2.00;;;;;11.99;81.06;100976.66;5111924;27;45459;-67
2023/01/11 06:53:39;;;;;;;;;0.00;0.00;;;;;12.09;80.71;100995.91;5079261;27;46089;-67
2023/01/11 06:56:05;;;;;;;;;1.67;1.67;;;;;12.08;81.45;101002.91;5093920;27;45401;-67
2023/01/11 06:58:30;;;;;;;;;1.67;1.00;;;;;12.00;81.00;100988.91;5094020;27;45512;-65
2023/01/11 07:00:56;;;;;;;;;1.33;1.00;;;;;11.98;81.37;101008.16;5097138;27;45860;-68
2023/01/11 07:03:25;;;;;;;;;2.00;0.00;;;;;11.99;80.97;101017.78;5097036;27;46523;-67
2023/01/11 07:05:52;;;;;;;;;3.00;1.33;;;;;11.98;81.36;101005.53;5095733;27;45485;-66
2023/01/11 07:08:18;;;;;;;;;1.00;1.00;;;;;11.95;81.47;101002.91;5096989;27;45333;-67
2023/01/11 07:10:44;;;;;;;;;2.00;1.00;;;;;11.94;81.53;101014.28;5096136;27;45547;-66
2023/01/11 07:13:11;;;;;;;;;1.67;1.00;;;;;11.88;81.27;101004.63;5097015;27;45447;-66
2023/01/11 07:15:36;;;;;;;;;2.00;1.00;;;;;11.88;81.55;101013.38;5100257;27;45172;-66
2023/01/11 07:18:02;;;;;;;;;2.33;1.00;;;;;11.88;81.44;101012.50;5097248;27;45428;-67
2023/01/11 07:20:28;;;;;;;;;1.33;1.00;;;;;11.83;81.50;100996.72;5097038;27;45827;-68
2023/01/11 07:22:58;;;;;;;;;1.00;0.00;;;;;11.83;81.43;100999.34;5096330;27;45607;-66
2023/01/11 07:25:26;;;;;;;;;0.67;0.67;;;;;11.76;82.02;100997.59;5099209;27;45569;-67
2023/01/11 07:27:59;;;;;;;;;2.67;0.67;;;;;11.83;82.04;101024.72;5097104;27;45880;-66
2023/01/11 07:30:27;;;;;;;;;2.00;0.67;;;;;11.81;81.47;101018.59;5112062;27;45561;-68
2023/01/11 07:32:53;;;;;;;;;1.00;1.00;;;;;11.82;81.67;101023.00;5096248;27;45624;-66
2023/01/11 07:35:19;;;;;;;;;2.33;1.00;;;;;11.76;81.32;101028.22;5096693;27;45576;-66
2023/01/11 07:37:45;;;;;;;;;2.00;1.00;;;;;11.76;80.86;101036.97;5096622;27;45937;-66
2023/01/11 07:40:11;;;;;;;;;3.00;0.00;;;;;11.73;81.57;101046.59;5098191;27;45475;-66
2023/01/11 07:45:21;;;;;;;;;2.33;1.00;;;;;11.67;81.04;101048.34;5100366;27;45527;-68
2023/01/11 07:47:53;;;;;;;;;1.67;1.00;;;;;11.68;81.01;101055.31;5100275;27;45401;-67
2023/01/11 07:50:18;;;;;;;;;2.00;1.00;;;;;11.57;80.40;101058.78;5113792;27;45413;-68
2023/01/11 07:52:48;;;;;;;;;1.33;0.67;;;;;11.67;80.72;101085.06;5083051;27;45371;-66
2023/01/11 07:55:14;;;;;;;;;1.00;1.00;;;;;11.66;80.58;101099.03;5095886;27;45657;-66
2023/01/11 07:57:40;;;;;;;;;1.00;1.00;;;;;11.61;80.99;101090.28;5098807;27;45574;-66
2023/01/11 08:00:06;;;;;;;;;5.33;1.33;;;;;11.64;80.72;101106.03;5100621;27;45463;-67
2023/01/11 08:02:31;;;;;;;;;1.33;1.00;;;;;11.62;80.52;101099.03;5097691;27;45977;-66
2023/01/11 08:04:57;;;;;;;;;1.67;1.00;;;;;11.59;80.20;101106.88;5094337;27;45417;-67
2023/01/11 08:07:23;;;;;;;;;1.67;1.67;;;;;11.62;79.92;101107.75;5098247;27;45481;-66
2023/01/11 08:09:48;;;;;;;;;2.00;1.00;;;;;11.62;79.26;101113.00;5099287;27;45425;-67
2023/01/11 08:14:58;;;;;;;;;3.33;0.33;;;;;11.64;79.20;101120.91;5095905;27;45509;-67
2023/01/11 08:17:23;;;;;;;;;3.00;1.00;;;;;11.58;79.04;101110.38;5096290;27;45382;-67
2023/01/11 08:19:49;;;;;;;;;4.00;1.00;;;;;11.69;78.95;101134.91;5095823;27;45455;-65
2023/01/11 08:22:16;;;;;;;;;1.67;1.00;;;;;11.77;78.59;101156.81;5095617;27;45376;-67
2023/01/11 08:24:42;;;;;;;;;2.00;1.00;;;;;11.73;78.57;101149.78;5096462;27;45787;-66
2023/01/11 08:27:08;;;;;;;;;1.00;0.00;;;;;11.75;78.54;101147.19;5100286;27;45577;-66
2023/01/11 08:29:33;;;;;;;;;3.00;0.00;;;;;11.77;79.00;101154.19;5100522;27;45550;-67
2023/01/11 08:31:59;;;;;;;;;3.00;1.00;;;;;11.81;78.79;101162.94;5099636;27;45949;-67
2023/01/11 08:34:27;;;;;;;;;1.00;1.00;;;;;11.86;78.17;101180.47;5098841;27;45357;-66
2023/01/11 08:36:55;;;;;;;;;1.00;0.67;;;;;11.83;77.71;101169.94;5115915;27;45436;-67
2023/01/11 08:39:21;;;;;;;;;1.67;1.00;;;;;11.89;77.25;101184.91;5097239;27;45672;-66
2023/01/11 15:49:10;;;;;;;;;0.67;0.67;;;;;11.38;59.30;101469.59;5074037;28;45631;-67
2023/01/11 15:51:54;;;;;;;;;2.00;1.00;;;;;11.44;58.24;101452.19;5083125;27;45421;-67
2023/01/11 15:54:22;;;;;;;;;3.00;1.00;;;;;11.63;58.41;101468.13;5073155;28;45512;-67
2023/01/11 15:57:16;;;;;;;;;0.67;0.00;;;;;11.71;58.34;101455.94;5071678;28;45386;-67
2023/01/11 15:59:45;;;;;;;;;2.67;0.33;;;;;11.76;58.21;101466.47;5083469;27;45772;-66
2023/01/11 16:02:26;;;;;;;;;0.67;0.00;;;;;11.80;57.71;101463.00;5071324;27;45567;-66
2023/01/11 16:05:05;;;;;;;;;4.67;2.00;;;;;11.78;58.22;101452.50;5072380;28;45576;-66
2023/01/11 16:07:42;;;;;;;;;1.00;1.00;;;;;11.85;58.80;101477.94;5073807;28;45555;-66
2023/01/11 16:10:37;;;;;;;;;1.67;1.00;;;;;11.88;58.68;101458.72;5072129;28;45406;-68
2023/01/11 16:13:32;;;;;;;;;5.67;1.33;;;;;11.95;58.69;101476.28;5086377;27;45436;-67
2023/01/11 16:16:16;;;;;;;;;1.67;1.67;;;;;11.99;58.55;101474.59;5069679;27;45516;-67
2023/01/11 16:19:18;;;;;;;;;6.00;1.33;;;;;12.00;59.18;101485.06;5069144;27;45504;-67
2023/01/11 16:21:51;;;;;;;;;3.00;3.00;;;;;12.03;59.32;101493.00;5069236;28;45385;-68
2023/01/11 16:24:20;;;;;;;;;3.67;1.00;;;;;11.99;59.37;101495.59;5069850;27;45455;-67
2023/01/11 16:26:57;;;;;;;;;3.33;2.00;;;;;12.00;59.95;101506.09;5068025;28;45407;-67
2023/01/11 16:29:25;;;;;;;;;2.00;1.00;;;;;12.03;60.23;101505.22;5066184;28;45620;-66
2023/01/11 16:31:53;;;;;;;;;2.33;1.33;;;;;12.05;60.04;101498.25;5056907;28;45536;-69
2023/01/11 16:34:18;;;;;;;;;3.00;1.00;;;;;11.95;59.72;101501.66;5051456;28;45681;-67
2023/01/11 16:36:47;;;;;;;;;3.67;1.33;;;;;12.04;59.96;101512.25;5050404;28;45688;-66
2023/01/11 16:39:17;;;;;;;;;3.00;2.00;;;;;12.05;60.19;101506.13;5049927;28;46691;-66
2023/01/11 16:41:45;;;;;;;;;3.33;1.00;;;;;12.05;60.49;101499.16;5069854;27;45605;-66
2023/01/11 16:44:29;;;;;;;;;4.00;2.00;;;;;12.02;60.42;101480.72;5073983;27;45467;-66
2023/01/11 16:47:10;;;;;;;;;3.00;1.00;;;;;12.02;60.17;101485.09;5079992;27;45514;-67
2023/01/11 16:49:36;;;;;;;;;3.00;2.00;;;;;12.02;60.31;101487.72;5088385;27;45616;-67
2023/01/11 16:52:30;;;;;;;;;3.00;2.33;;;;;11.96;60.18;101499.06;5087573;27;45572;-67
2023/01/11 16:54:58;;;;;;;;;1.67;1.67;;;;;11.95;60.92;101499.03;5087135;27;45642;-67
2023/01/11 16:57:48;;;;;;;;;2.33;2.00;;;;;11.90;60.69;101500.75;5074956;27;45511;-66
2023/01/11 17:00:31;;;;;;;;;3.00;2.00;;;;;11.88;60.95;101503.34;5074741;28;45703;-68
2023/01/11 17:03:14;;;;;;;;;1.00;1.00;;;;;11.87;60.77;101499.84;5075079;28;45488;-67
2023/01/11 17:05:40;;;;;;;;;3.00;1.33;;;;;11.92;60.93;101514.78;5073456;28;45429;-68
2023/01/11 17:08:30;;;;;;;;;2.00;1.00;;;;;11.87;60.56;101506.84;5061275;28;45590;-69
2023/01/11 17:11:06;;;;;;;;;4.00;2.67;;;;;11.87;60.68;101510.34;5060037;28;47674;-68
2023/01/11 17:16:27;;;;;;;;;2.00;1.33;;;;;11.83;60.75;101515.53;5075019;28;45497;-67
2023/01/11 17:18:53;;;;;;;;;2.67;2.67;;;;;11.85;60.78;101522.56;5077258;28;45479;-67
2023/01/11 17:21:21;;;;;;;;;4.67;1.67;;;;;11.80;61.11;101526.00;5057032;28;46614;-68
2023/01/11 17:23:48;;;;;;;;;2.67;1.67;;;;;11.75;61.23;101517.22;5073416;28;45778;-67
2023/01/11 17:26:26;;;;;;;;;3.00;1.00;;;;;11.79;61.34;101527.75;5088207;27;45540;-67
2023/01/11 17:28:56;;;;;;;;;4.00;1.33;;;;;11.70;61.37;101513.63;5074806;28;45384;-68
2023/01/11 17:31:26;;;;;;;;;7.67;2.00;;;;;11.67;61.04;101532.84;5063247;28;45771;-67
2023/01/11 17:34:19;;;;;;;;;3.00;3.00;;;;;11.58;61.33;101524.88;5073896;28;45530;-67
2023/01/11 17:36:46;;;;;;;;;2.00;2.00;;;;;11.61;61.76;101524.94;5057244;28;45612;-66
2023/01/11 17:39:32;;;;;;;;;8.33;1.67;;;;;11.63;61.83;101537.22;5078131;28;45748;-68
2023/01/11 17:47:32;;;;;;;;;5.33;3.00;;;;;11.67;61.79;101541.63;5073970;28;45900;-67
2023/01/11 17:50:01;;;;;;;;;6.00;3.00;;;;;11.70;61.87;101539.88;5059407;28;45612;-66
2023/01/11 17:52:39;;;;;;;;;5.00;3.00;;;;;11.69;62.06;101541.63;5059175;28;47669;-69
2023/01/11 17:55:15;;;;;;;;;6.00;4.00;;;;;11.59;62.11;101531.91;5062263;28;45749;-67
2023/01/11 17:57:42;;;;;;;;;5.67;2.67;;;;;11.58;61.94;101532.75;5068886;27;45690;-67
2023/01/11 18:00:17;;;;;;;;;4.33;3.00;;;;;11.53;61.98;101522.25;5070046;28;45722;-66
2023/01/11 18:02:44;;;;;;;;;4.00;2.00;;;;;11.61;62.05;101538.06;5078048;27;45396;-68
2023/01/11 18:05:26;;;;;;;;;6.67;5.33;;;;;11.65;62.41;101534.59;5086233;27;45462;-69
2023/01/11 18:07:55;;;;;;;;;6.00;5.33;;;;;11.53;62.06;101517.00;5058357;28;45644;-67
2023/01/11 18:10:27;;;;;;;;;6.00;3.00;;;;;11.48;62.38;101509.94;5074604;27;45460;-68
2023/01/11 18:12:56;;;;;;;;;4.00;2.00;;;;;11.49;62.57;101520.44;5058024;28;47706;-67
2023/01/11 18:15:36;;;;;;;;;3.00;3.00;;;;;11.55;62.57;101524.88;5075313;28;45425;-67
2023/01/11 18:18:04;;;;;;;;;7.33;2.67;;;;;11.56;63.20;101524.91;5085420;28;45841;-70
2023/01/11 18:20:36;;;;;;;;;3.00;2.33;;;;;11.53;62.99;101524.88;5078889;27;45296;-66
2023/01/11 18:23:23;;;;;;;;;7.00;3.67;;;;;11.53;63.07;101522.25;5071228;28;45516;-67
2023/01/11 18:25:49;;;;;;;;;2.67;2.67;;;;;11.50;62.82;101516.06;5059060;28;45453;-67
2023/01/11 18:28:20;;;;;;;;;6.33;3.33;;;;;11.46;63.22;101528.28;5055909;28;45430;-67
2023/01/11 18:30:52;;;;;;;;;6.00;2.00;;;;;11.19;63.43;101477.28;5070676;27;45366;-68
2023/01/11 18:33:21;;;;;;;;;4.00;3.00;;;;;11.39;63.25;101514.22;5071590;28;46396;-68
2023/01/11 18:35:57;;;;;;;;;10.67;2.33;;;;;11.43;63.33;101516.00;5075258;28;45509;-68
2023/01/11 18:38:30;;;;;;;;;4.00;2.00;;;;;11.43;63.59;101508.13;5056408;28;45615;-69
2023/01/11 18:40:58;;;;;;;;;2.00;1.00;;;;;11.43;63.71;101512.50;5070938;28;45402;-70
2023/01/11 18:43:29;;;;;;;;;6.00;3.00;;;;;11.39;63.81;101503.72;5075968;28;45901;-69
2023/01/11 18:45:56;;;;;;;;;5.33;2.00;;;;;11.37;63.36;101509.81;5070485;28;45587;-68
2023/01/11 18:48:22;;;;;;;;;4.00;3.00;;;;;11.54;63.54;101524.00;5072746;28;45509;-71
2023/01/11 18:50:50;;;;;;;;;7.00;3.33;;;;;11.55;63.81;101535.38;5056938;28;45631;-71
2023/01/11 18:53:17;;;;;;;;;6.67;2.00;;;;;11.48;64.00;101521.28;5071269;27;46231;-70
2023/01/11 18:55:44;;;;;;;;;4.00;3.00;;;;;11.46;64.02;101530.91;5070892;28;45750;-73
2023/01/11 18:58:09;;;;;;;;;3.33;2.00;;;;;11.15;63.77;101471.97;5071797;28;45335;-70
2023/01/11 19:00:36;;;;;;;;;4.67;3.00;;;;;11.13;64.57;101495.56;5065906;27;45464;-68
2023/01/11 19:03:06;;;;;;;;;7.33;3.00;;;;;11.41;64.60;101545.69;5071603;27;46851;-70
2023/01/11 19:05:32;;;;;;;;;4.00;3.00;;;;;11.41;64.39;101540.44;5050826;28;45462;-70
2023/01/11 19:07:58;;;;;;;;;4.00;2.00;;;;;11.38;64.47;101543.03;5074045;27;45476;-69
2023/01/11 19:10:23;;;;;;;;;6.67;5.33;;;;;11.47;64.46;101543.16;5058922;28;45504;-71
2023/01/11 19:12:49;;;;;;;;;3.33;2.33;;;;;11.44;64.23;101546.63;5049494;28;46600;-68
2023/01/11 19:15:16;;;;;;;;;7.33;3.67;;;;;11.51;64.21;101549.31;5071013;28;45553;-70
2023/01/11 19:17:42;;;;;;;;;4.00;4.00;;;;;11.42;64.21;101530.00;5046075;28;45736;-69